sensor_id;sensor_type;location;lat;lon;timestamp;temperature;humidity
796;DHT22;381;48.770;9.188;2024-02-23T00:02:42;8.60;99.90
796;DHT22;381;48.770;9.188;2024-02-23T00:07:44;8.70;99.90
796;DHT22;381;48.770;9.188;2024-02-23T00:12:48;8.60;99.90
796;DHT22;381;48.770;9.188;2024-02-23T00:17:50;8.70;99.90
796;DHT22;381;48.770;9.188;2024-02-23T00:22:52;8.70;99.90
796;DHT22;381;48.770;9.188;2024-02-23T00:27:56;8.70;99.90
796;DHT22;381;48.770;9.188;2024-02-23T00:32:58;8.80;99.90
796;DHT22;381;48.770;9.188;2024-02-23T00:38:00;8.80;99.90
796;DHT22;381;48.770;9.188;2024-02-23T00:43:04;8.80;99.90
796;DHT22;381;48.770;9.188;2024-02-23T00:48:07;8.80;99.90
796;DHT22;381;48.770;9.188;2024-02-23T00:53:09;8.80;99.90
796;DHT22;381;48.770;9.188;2024-02-23T00:58:13;8.80;99.90
796;DHT22;381;48.770;9.188;2024-02-23T01:03:16;8.80;99.90
796;DHT22;381;48.770;9.188;2024-02-23T01:08:19;8.80;99.90
796;DHT22;381;48.770;9.188;2024-02-23T01:13:23;8.80;99.90
796;DHT22;381;48.770;9.188;2024-02-23T01:18:25;8.80;99.90
796;DHT22;381;48.770;9.188;2024-02-23T01:23:28;8.80;99.90
796;DHT22;381;48.770;9.188;2024-02-23T01:28:31;8.80;99.90
796;DHT22;381;48.770;9.188;2024-02-23T01:33:34;8.80;99.90
796;DHT22;381;48.770;9.188;2024-02-23T01:38:37;8.80;99.90
796;DHT22;381;48.770;9.188;2024-02-23T01:43:41;8.70;99.90
796;DHT22;381;48.770;9.188;2024-02-23T01:48:43;8.70;99.90
796;DHT22;381;48.770;9.188;2024-02-23T01:53:45;8.70;99.90
796;DHT22;381;48.770;9.188;2024-02-23T01:58:49;8.70;99.90
796;DHT22;381;48.770;9.188;2024-02-23T02:03:52;8.70;99.90
796;DHT22;381;48.770;9.188;2024-02-23T02:08:54;8.70;99.90
796;DHT22;381;48.770;9.188;2024-02-23T02:13:58;8.70;99.90
796;DHT22;381;48.770;9.188;2024-02-23T02:19:00;8.70;99.90
796;DHT22;381;48.770;9.188;2024-02-23T02:24:03;8.70;99.90
796;DHT22;381;48.770;9.188;2024-02-23T02:29:06;8.70;99.90
796;DHT22;381;48.770;9.188;2024-02-23T02:34:09;8.70;99.90
796;DHT22;381;48.770;9.188;2024-02-23T02:39:14;8.70;99.90
796;DHT22;381;48.770;9.188;2024-02-23T02:44:17;8.70;99.90
796;DHT22;381;48.770;9.188;2024-02-23T02:49:20;8.70;99.90
796;DHT22;381;48.770;9.188;2024-02-23T02:54:22;8.70;99.90
796;DHT22;381;48.770;9.188;2024-02-23T02:59:26;8.70;99.90
796;DHT22;381;48.770;9.188;2024-02-23T03:04:28;8.70;99.90
796;DHT22;381;48.770;9.188;2024-02-23T03:09:30;8.70;99.90
796;DHT22;381;48.770;9.188;2024-02-23T03:14:34;8.70;99.90
796;DHT22;381;48.770;9.188;2024-02-23T03:19:38;8.60;99.90
796;DHT22;381;48.770;9.188;2024-02-23T03:24:41;8.60;99.90
796;DHT22;381;48.770;9.188;2024-02-23T03:29:44;8.60;99.90
796;DHT22;381;48.770;9.188;2024-02-23T03:34:47;8.60;99.90
796;DHT22;381;48.770;9.188;2024-02-23T03:39:49;8.70;99.90
796;DHT22;381;48.770;9.188;2024-02-23T03:44:53;8.70;99.90
796;DHT22;381;48.770;9.188;2024-02-23T03:49:55;8.70;99.90
796;DHT22;381;48.770;9.188;2024-02-23T03:54:57;8.70;99.90
796;DHT22;381;48.770;9.188;2024-02-23T04:00:01;8.70;99.90
796;DHT22;381;48.770;9.188;2024-02-23T04:05:12;8.60;99.90
796;DHT22;381;48.770;9.188;2024-02-23T04:10:15;8.60;99.90
796;DHT22;381;48.770;9.188;2024-02-23T04:15:19;8.60;99.90
796;DHT22;381;48.770;9.188;2024-02-23T04:20:21;8.50;99.90
796;DHT22;381;48.770;9.188;2024-02-23T04:25:24;8.50;99.50
796;DHT22;381;48.770;9.188;2024-02-23T04:30:28;8.50;98.90
796;DHT22;381;48.770;9.188;2024-02-23T04:35:30;8.50;99.10
796;DHT22;381;48.770;9.188;2024-02-23T04:40:32;8.40;99.00
796;DHT22;381;48.770;9.188;2024-02-23T04:45:36;8.30;99.10
796;DHT22;381;48.770;9.188;2024-02-23T04:50:38;8.30;98.50
796;DHT22;381;48.770;9.188;2024-02-23T04:55:41;8.30;98.40
796;DHT22;381;48.770;9.188;2024-02-23T05:00:44;8.20;98.10
796;DHT22;381;48.770;9.188;2024-02-23T05:05:47;8.20;98.00
796;DHT22;381;48.770;9.188;2024-02-23T05:10:52;8.20;97.80
796;DHT22;381;48.770;9.188;2024-02-23T05:15:56;8.20;98.40
796;DHT22;381;48.770;9.188;2024-02-23T05:21:00;8.20;98.30
796;DHT22;381;48.770;9.188;2024-02-23T05:31:06;8.00;98.70
796;DHT22;381;48.770;9.188;2024-02-23T05:36:09;8.00;98.60
796;DHT22;381;48.770;9.188;2024-02-23T05:41:12;7.90;98.80
796;DHT22;381;48.770;9.188;2024-02-23T05:46:15;7.80;98.70
796;DHT22;381;48.770;9.188;2024-02-23T05:51:19;7.70;98.80
796;DHT22;381;48.770;9.188;2024-02-23T05:56:21;7.60;98.80
796;DHT22;381;48.770;9.188;2024-02-23T06:01:26;7.60;99.20
796;DHT22;381;48.770;9.188;2024-02-23T06:06:28;7.50;99.10
796;DHT22;381;48.770;9.188;2024-02-23T06:11:32;7.40;99.70
796;DHT22;381;48.770;9.188;2024-02-23T06:16:36;7.30;99.90
796;DHT22;381;48.770;9.188;2024-02-23T06:21:38;7.20;99.90
796;DHT22;381;48.770;9.188;2024-02-23T06:26:40;7.10;99.90
796;DHT22;381;48.770;9.188;2024-02-23T06:31:44;7.00;99.90
796;DHT22;381;48.770;9.188;2024-02-23T06:36:50;7.10;99.90
796;DHT22;381;48.770;9.188;2024-02-23T06:41:52;7.10;99.90
796;DHT22;381;48.770;9.188;2024-02-23T06:46:56;7.10;99.90
796;DHT22;381;48.770;9.188;2024-02-23T06:51:58;7.10;99.90
796;DHT22;381;48.770;9.188;2024-02-23T06:57:00;7.10;99.90
796;DHT22;381;48.770;9.188;2024-02-23T07:02:06;7.10;99.90
796;DHT22;381;48.770;9.188;2024-02-23T07:07:08;7.10;99.90
796;DHT22;381;48.770;9.188;2024-02-23T07:12:12;7.10;99.90
796;DHT22;381;48.770;9.188;2024-02-23T07:17:18;7.20;99.90
796;DHT22;381;48.770;9.188;2024-02-23T07:22:20;7.30;99.90
796;DHT22;381;48.770;9.188;2024-02-23T07:27:22;7.50;99.90
796;DHT22;381;48.770;9.188;2024-02-23T07:32:26;7.60;99.90
796;DHT22;381;48.770;9.188;2024-02-23T07:37:30;7.70;99.90
796;DHT22;381;48.770;9.188;2024-02-23T07:42:33;7.80;99.90
796;DHT22;381;48.770;9.188;2024-02-23T07:47:37;7.90;99.90
796;DHT22;381;48.770;9.188;2024-02-23T07:52:40;8.00;99.90
796;DHT22;381;48.770;9.188;2024-02-23T07:57:42;8.10;99.90
796;DHT22;381;48.770;9.188;2024-02-23T08:02:46;8.20;99.90
796;DHT22;381;48.770;9.188;2024-02-23T08:07:48;8.20;99.90
796;DHT22;381;48.770;9.188;2024-02-23T08:12:51;8.30;99.90
796;DHT22;381;48.770;9.188;2024-02-23T08:17:54;8.30;99.90
796;DHT22;381;48.770;9.188;2024-02-23T08:22:57;8.30;99.90
796;DHT22;381;48.770;9.188;2024-02-23T08:27:59;8.30;99.90
796;DHT22;381;48.770;9.188;2024-02-23T08:33:03;8.40;99.90
796;DHT22;381;48.770;9.188;2024-02-23T08:38:06;8.40;99.90
796;DHT22;381;48.770;9.188;2024-02-23T08:43:10;8.50;99.50
796;DHT22;381;48.770;9.188;2024-02-23T08:48:13;8.50;99.00
796;DHT22;381;48.770;9.188;2024-02-23T08:53:16;8.50;98.30
796;DHT22;381;48.770;9.188;2024-02-23T08:58:18;8.50;98.40
796;DHT22;381;48.770;9.188;2024-02-23T09:03:22;8.60;98.00
796;DHT22;381;48.770;9.188;2024-02-23T09:08:24;8.70;98.30
796;DHT22;381;48.770;9.188;2024-02-23T09:13:26;8.80;97.80
796;DHT22;381;48.770;9.188;2024-02-23T09:18:32;8.80;97.00
796;DHT22;381;48.770;9.188;2024-02-23T09:23:34;8.90;97.10
796;DHT22;381;48.770;9.188;2024-02-23T09:28:36;9.00;96.60
796;DHT22;381;48.770;9.188;2024-02-23T09:33:40;9.10;96.60
796;DHT22;381;48.770;9.188;2024-02-23T09:38:44;9.10;96.60
796;DHT22;381;48.770;9.188;2024-02-23T09:43:47;9.20;96.70
796;DHT22;381;48.770;9.188;2024-02-23T09:48:51;9.20;96.20
796;DHT22;381;48.770;9.188;2024-02-23T09:53:54;9.20;95.80
796;DHT22;381;48.770;9.188;2024-02-23T09:58:58;9.30;96.30
796;DHT22;381;48.770;9.188;2024-02-23T10:04:03;9.30;94.50
796;DHT22;381;48.770;9.188;2024-02-23T10:09:07;9.40;94.50
796;DHT22;381;48.770;9.188;2024-02-23T10:14:11;9.40;94.20
796;DHT22;381;48.770;9.188;2024-02-23T10:19:14;9.40;94.70
796;DHT22;381;48.770;9.188;2024-02-23T10:24:17;9.50;94.30
796;DHT22;381;48.770;9.188;2024-02-23T10:29:20;9.60;93.70
796;DHT22;381;48.770;9.188;2024-02-23T10:34:24;9.70;93.80
796;DHT22;381;48.770;9.188;2024-02-23T10:39:29;9.70;93.50
796;DHT22;381;48.770;9.188;2024-02-23T10:44:32;9.70;94.10
796;DHT22;381;48.770;9.188;2024-02-23T10:49:36;9.90;94.50
796;DHT22;381;48.770;9.188;2024-02-23T10:54:39;9.90;93.00
796;DHT22;381;48.770;9.188;2024-02-23T10:59:42;9.80;92.70
796;DHT22;381;48.770;9.188;2024-02-23T11:04:49;9.80;93.10
796;DHT22;381;48.770;9.188;2024-02-23T11:09:52;9.90;93.20
796;DHT22;381;48.770;9.188;2024-02-23T11:14:57;10.00;93.60
796;DHT22;381;48.770;9.188;2024-02-23T11:20:04;10.10;92.00
796;DHT22;381;48.770;9.188;2024-02-23T11:25:08;10.10;91.70
796;DHT22;381;48.770;9.188;2024-02-23T11:30:11;10.20;92.40
796;DHT22;381;48.770;9.188;2024-02-23T11:35:16;10.30;92.00
796;DHT22;381;48.770;9.188;2024-02-23T11:40:20;10.30;91.70
796;DHT22;381;48.770;9.188;2024-02-23T11:45:23;10.40;91.20
796;DHT22;381;48.770;9.188;2024-02-23T11:50:30;10.40;91.70
796;DHT22;381;48.770;9.188;2024-02-23T11:55:32;10.50;91.90
796;DHT22;381;48.770;9.188;2024-02-23T12:00:35;10.60;91.10
796;DHT22;381;48.770;9.188;2024-02-23T12:05:39;10.60;90.40
796;DHT22;381;48.770;9.188;2024-02-23T12:10:41;10.50;90.10
796;DHT22;381;48.770;9.188;2024-02-23T12:15:44;10.50;91.10
796;DHT22;381;48.770;9.188;2024-02-23T12:20:48;10.50;90.00
796;DHT22;381;48.770;9.188;2024-02-23T12:25:54;10.50;89.60
796;DHT22;381;48.770;9.188;2024-02-23T12:31:01;10.50;90.10
796;DHT22;381;48.770;9.188;2024-02-23T12:36:06;10.60;90.50
796;DHT22;381;48.770;9.188;2024-02-23T12:41:09;10.70;90.80
796;DHT22;381;48.770;9.188;2024-02-23T12:46:12;10.80;89.60
796;DHT22;381;48.770;9.188;2024-02-23T12:51:16;10.80;88.90
796;DHT22;381;48.770;9.188;2024-02-23T12:56:19;10.70;90.20
796;DHT22;381;48.770;9.188;2024-02-23T13:01:21;10.80;90.60
796;DHT22;381;48.770;9.188;2024-02-23T13:06:25;10.80;90.60
796;DHT22;381;48.770;9.188;2024-02-23T13:11:28;10.90;90.80
796;DHT22;381;48.770;9.188;2024-02-23T13:16:30;11.00;90.90
796;DHT22;381;48.770;9.188;2024-02-23T13:21:34;11.00;89.70
796;DHT22;381;48.770;9.188;2024-02-23T13:26:36;10.90;90.00
796;DHT22;381;48.770;9.188;2024-02-23T13:31:39;10.90;90.10
796;DHT22;381;48.770;9.188;2024-02-23T13:36:42;10.90;90.80
796;DHT22;381;48.770;9.188;2024-02-23T13:41:45;11.00;90.80
796;DHT22;381;48.770;9.188;2024-02-23T13:46:47;11.00;90.60
796;DHT22;381;48.770;9.188;2024-02-23T13:51:51;11.00;90.30
796;DHT22;381;48.770;9.188;2024-02-23T13:56:53;10.90;91.10
796;DHT22;381;48.770;9.188;2024-02-23T14:01:55;11.00;91.10
796;DHT22;381;48.770;9.188;2024-02-23T14:06:59;11.00;90.50
796;DHT22;381;48.770;9.188;2024-02-23T14:12:02;11.00;90.50
796;DHT22;381;48.770;9.188;2024-02-23T14:17:05;10.90;90.90
796;DHT22;381;48.770;9.188;2024-02-23T14:22:09;11.00;90.50
796;DHT22;381;48.770;9.188;2024-02-23T14:27:11;11.00;90.70
796;DHT22;381;48.770;9.188;2024-02-23T14:32:16;11.00;90.80
796;DHT22;381;48.770;9.188;2024-02-23T14:37:20;10.90;91.40
796;DHT22;381;48.770;9.188;2024-02-23T14:42:22;11.00;90.40
796;DHT22;381;48.770;9.188;2024-02-23T14:47:24;10.90;90.50
796;DHT22;381;48.770;9.188;2024-02-23T14:52:28;10.90;91.30
796;DHT22;381;48.770;9.188;2024-02-23T14:57:30;10.90;91.40
796;DHT22;381;48.770;9.188;2024-02-23T15:02:33;10.90;90.40
796;DHT22;381;48.770;9.188;2024-02-23T15:07:37;10.90;90.30
796;DHT22;381;48.770;9.188;2024-02-23T15:12:39;10.90;90.50
796;DHT22;381;48.770;9.188;2024-02-23T15:17:42;10.90;90.70
796;DHT22;381;48.770;9.188;2024-02-23T15:22:48;10.90;91.50
796;DHT22;381;48.770;9.188;2024-02-23T15:27:50;10.80;90.50
796;DHT22;381;48.770;9.188;2024-02-23T15:32:58;10.80;90.70
796;DHT22;381;48.770;9.188;2024-02-23T15:38:02;10.70;91.20
796;DHT22;381;48.770;9.188;2024-02-23T15:43:04;10.80;91.40
796;DHT22;381;48.770;9.188;2024-02-23T15:48:07;10.80;91.20
796;DHT22;381;48.770;9.188;2024-02-23T15:53:11;10.80;91.20
796;DHT22;381;48.770;9.188;2024-02-23T15:58:13;10.70;91.00
796;DHT22;381;48.770;9.188;2024-02-23T16:03:17;10.70;91.00
796;DHT22;381;48.770;9.188;2024-02-23T16:08:38;10.60;91.30
796;DHT22;381;48.770;9.188;2024-02-23T16:13:41;10.60;92.30
796;DHT22;381;48.770;9.188;2024-02-23T16:18:43;10.50;93.00
796;DHT22;381;48.770;9.188;2024-02-23T16:23:47;10.50;93.70
796;DHT22;381;48.770;9.188;2024-02-23T16:28:50;10.50;94.00
796;DHT22;381;48.770;9.188;2024-02-23T16:33:52;10.40;94.00
796;DHT22;381;48.770;9.188;2024-02-23T16:38:56;10.30;94.40
796;DHT22;381;48.770;9.188;2024-02-23T16:43:58;10.30;94.60
796;DHT22;381;48.770;9.188;2024-02-23T16:49:02;10.20;94.50
796;DHT22;381;48.770;9.188;2024-02-23T16:54:08;10.10;95.40
796;DHT22;381;48.770;9.188;2024-02-23T16:59:11;10.00;96.10
796;DHT22;381;48.770;9.188;2024-02-23T17:04:14;9.90;96.60
796;DHT22;381;48.770;9.188;2024-02-23T17:09:17;9.90;96.70
796;DHT22;381;48.770;9.188;2024-02-23T17:14:20;9.80;96.90
796;DHT22;381;48.770;9.188;2024-02-23T17:19:22;9.80;97.00
796;DHT22;381;48.770;9.188;2024-02-23T17:24:26;9.70;97.40
796;DHT22;381;48.770;9.188;2024-02-23T17:29:28;9.70;97.60
796;DHT22;381;48.770;9.188;2024-02-23T17:34:31;9.60;97.70
796;DHT22;381;48.770;9.188;2024-02-23T17:39:35;9.50;97.40
796;DHT22;381;48.770;9.188;2024-02-23T17:44:37;9.50;97.30
796;DHT22;381;48.770;9.188;2024-02-23T17:49:40;9.40;97.10
796;DHT22;381;48.770;9.188;2024-02-23T17:54:43;9.30;97.10
796;DHT22;381;48.770;9.188;2024-02-23T17:59:46;9.30;97.10
796;DHT22;381;48.770;9.188;2024-02-23T18:04:48;9.20;97.10
796;DHT22;381;48.770;9.188;2024-02-23T18:09:52;9.10;96.80
796;DHT22;381;48.770;9.188;2024-02-23T18:14:54;9.10;96.70
796;DHT22;381;48.770;9.188;2024-02-23T18:19:56;9.10;96.40
796;DHT22;381;48.770;9.188;2024-02-23T18:25:00;9.00;96.60
796;DHT22;381;48.770;9.188;2024-02-23T18:30:03;9.00;96.30
796;DHT22;381;48.770;9.188;2024-02-23T18:35:07;8.90;96.30
796;DHT22;381;48.770;9.188;2024-02-23T18:40:12;8.70;96.00
796;DHT22;381;48.770;9.188;2024-02-23T18:45:15;8.60;95.40
796;DHT22;381;48.770;9.188;2024-02-23T18:50:20;8.60;95.20
796;DHT22;381;48.770;9.188;2024-02-23T18:55:24;8.60;94.90
796;DHT22;381;48.770;9.188;2024-02-23T19:00:27;8.50;95.00
796;DHT22;381;48.770;9.188;2024-02-23T19:05:29;8.50;94.70
796;DHT22;381;48.770;9.188;2024-02-23T19:10:33;8.40;94.90
796;DHT22;381;48.770;9.188;2024-02-23T19:15:35;8.30;94.60
796;DHT22;381;48.770;9.188;2024-02-23T19:20:40;8.20;94.80
796;DHT22;381;48.770;9.188;2024-02-23T19:25:44;8.10;94.90
796;DHT22;381;48.770;9.188;2024-02-23T19:30:46;8.10;94.90
796;DHT22;381;48.770;9.188;2024-02-23T19:35:49;8.00;94.80
796;DHT22;381;48.770;9.188;2024-02-23T19:40:52;7.90;94.90
796;DHT22;381;48.770;9.188;2024-02-23T19:45:55;7.90;95.00
796;DHT22;381;48.770;9.188;2024-02-23T19:50:58;7.80;94.90
796;DHT22;381;48.770;9.188;2024-02-23T19:56:02;7.80;95.30
796;DHT22;381;48.770;9.188;2024-02-23T20:01:05;7.70;94.80
796;DHT22;381;48.770;9.188;2024-02-23T20:06:07;7.70;94.90
796;DHT22;381;48.770;9.188;2024-02-23T20:11:14;7.70;94.90
796;DHT22;381;48.770;9.188;2024-02-23T20:16:17;7.70;94.70
796;DHT22;381;48.770;9.188;2024-02-23T20:21:20;7.70;94.60
796;DHT22;381;48.770;9.188;2024-02-23T20:26:23;7.70;94.50
796;DHT22;381;48.770;9.188;2024-02-23T20:31:26;7.70;94.50
796;DHT22;381;48.770;9.188;2024-02-23T20:36:28;7.70;94.40
796;DHT22;381;48.770;9.188;2024-02-23T20:41:37;7.60;94.30
796;DHT22;381;48.770;9.188;2024-02-23T20:46:39;7.60;94.40
796;DHT22;381;48.770;9.188;2024-02-23T20:51:42;7.50;94.40
796;DHT22;381;48.770;9.188;2024-02-23T20:56:51;7.40;94.40
796;DHT22;381;48.770;9.188;2024-02-23T21:01:53;7.40;94.40
796;DHT22;381;48.770;9.188;2024-02-23T21:06:56;7.30;94.50
796;DHT22;381;48.770;9.188;2024-02-23T21:11:59;7.30;94.70
796;DHT22;381;48.770;9.188;2024-02-23T21:17:04;7.20;94.70
796;DHT22;381;48.770;9.188;2024-02-23T21:22:06;7.20;94.70
796;DHT22;381;48.770;9.188;2024-02-23T21:27:10;7.10;94.60
796;DHT22;381;48.770;9.188;2024-02-23T21:32:12;7.10;94.70
796;DHT22;381;48.770;9.188;2024-02-23T21:37:15;7.10;94.60
796;DHT22;381;48.770;9.188;2024-02-23T21:42:23;7.00;94.70
796;DHT22;381;48.770;9.188;2024-02-23T21:47:25;6.90;94.80
796;DHT22;381;48.770;9.188;2024-02-23T21:52:28;6.80;95.00
796;DHT22;381;48.770;9.188;2024-02-23T21:57:33;6.80;95.20
796;DHT22;381;48.770;9.188;2024-02-23T22:02:35;6.80;95.30
796;DHT22;381;48.770;9.188;2024-02-23T22:07:37;6.70;95.30
796;DHT22;381;48.770;9.188;2024-02-23T22:12:41;6.70;95.20
796;DHT22;381;48.770;9.188;2024-02-23T22:17:44;6.70;95.30
796;DHT22;381;48.770;9.188;2024-02-23T22:22:47;6.60;95.30
796;DHT22;381;48.770;9.188;2024-02-23T22:27:51;6.50;95.50
796;DHT22;381;48.770;9.188;2024-02-23T22:32:53;6.60;95.50
796;DHT22;381;48.770;9.188;2024-02-23T22:37:55;6.60;95.60
796;DHT22;381;48.770;9.188;2024-02-23T22:43:00;6.60;95.20
796;DHT22;381;48.770;9.188;2024-02-23T22:48:03;6.50;95.40
796;DHT22;381;48.770;9.188;2024-02-23T22:53:06;6.50;95.30
796;DHT22;381;48.770;9.188;2024-02-23T22:58:10;6.50;95.40
796;DHT22;381;48.770;9.188;2024-02-23T23:03:13;6.50;95.60
796;DHT22;381;48.770;9.188;2024-02-23T23:08:15;6.50;95.50
796;DHT22;381;48.770;9.188;2024-02-23T23:13:19;6.50;95.40
796;DHT22;381;48.770;9.188;2024-02-23T23:18:21;6.50;95.40
796;DHT22;381;48.770;9.188;2024-02-23T23:23:23;6.40;95.50
796;DHT22;381;48.770;9.188;2024-02-23T23:28:27;6.40;95.70
796;DHT22;381;48.770;9.188;2024-02-23T23:33:30;6.40;95.80
796;DHT22;381;48.770;9.188;2024-02-23T23:38:32;6.40;95.80
796;DHT22;381;48.770;9.188;2024-02-23T23:43:36;6.30;95.70
796;DHT22;381;48.770;9.188;2024-02-23T23:48:38;6.30;95.50
796;DHT22;381;48.770;9.188;2024-02-23T23:53:40;6.30;95.10
796;DHT22;381;48.770;9.188;2024-02-23T23:58:44;6.40;95.10
